BER8SH EDDK-EDDH
Flight info
| Callsign | BER8SH |
|---|---|
| Flight time | 0h 39m |
| Altitude | 27000 |
| Route | PODIP8K PODIP Y867 PELUN DCT ANZIV DCT WRB Y867 TOLGI DCT SAS P605 NOLGO NOLGO6A |
| Aircraft | A320/M-SDE3FGHIRWY/LB1 |
Departure
| Time | 2026-05-05 07:25 |
|---|---|
| Airport | Cologne Bonn Airport (EDDK) |
Arrival
| Time | 2026-05-05 08:05 |
|---|---|
| Airport | Hamburg Helmut Schmidt Airport (EDDH) |
| Time | Latitude | Longitude | Altitude | Speed | Heading |
|---|---|---|---|---|---|
| 2026-05-05 07:00 | 50.87643 | 7.12303 | 235 ft | 0 kts | 51° |
| 2026-05-05 07:16 | 50.87635 | 7.12288 | 233 ft | 4 kts | 44° |
| 2026-05-05 07:17 | 50.87616 | 7.12260 | 234 ft | 2 kts | 45° |
| 2026-05-05 07:17 | 50.87601 | 7.12232 | 235 ft | 4 kts | 67° |
| 2026-05-05 07:17 | 50.87598 | 7.12194 | 235 ft | 3 kts | 115° |
| 2026-05-05 07:17 | 50.87602 | 7.12182 | 236 ft | 0 kts | 118° |
| 2026-05-05 07:20 | 50.87599 | 7.12190 | 235 ft | 3 kts | 118° |
| 2026-05-05 07:20 | 50.87577 | 7.12256 | 232 ft | 10 kts | 118° |
| 2026-05-05 07:20 | 50.87545 | 7.12353 | 232 ft | 11 kts | 118° |
| 2026-05-05 07:20 | 50.87470 | 7.12397 | 234 ft | 15 kts | 196° |
| 2026-05-05 07:21 | 50.87360 | 7.12341 | 232 ft | 19 kts | 198° |
| 2026-05-05 07:21 | 50.87231 | 7.12273 | 234 ft | 21 kts | 198° |
| 2026-05-05 07:21 | 50.87108 | 7.12162 | 233 ft | 21 kts | 225° |
| 2026-05-05 07:21 | 50.86986 | 7.12037 | 232 ft | 23 kts | 181° |
| 2026-05-05 07:22 | 50.86826 | 7.12088 | 233 ft | 24 kts | 165° |
| 2026-05-05 07:22 | 50.86658 | 7.12160 | 232 ft | 26 kts | 164° |
| 2026-05-05 07:22 | 50.86484 | 7.12233 | 234 ft | 26 kts | 166° |
| 2026-05-05 07:22 | 50.86309 | 7.12304 | 232 ft | 22 kts | 165° |
| 2026-05-05 07:23 | 50.86198 | 7.12341 | 234 ft | 10 kts | 173° |
| 2026-05-05 07:23 | 50.86175 | 7.12346 | 235 ft | 0 kts | 169° |
| 2026-05-05 07:24 | 50.86158 | 7.12352 | 236 ft | 5 kts | 168° |
| 2026-05-05 07:24 | 50.86111 | 7.12367 | 237 ft | 9 kts | 168° |
| 2026-05-05 07:24 | 50.86042 | 7.12397 | 239 ft | 10 kts | 146° |
| 2026-05-05 07:24 | 50.86048 | 7.12493 | 239 ft | 13 kts | 65° |
| 2026-05-05 07:25 | 50.86169 | 7.12892 | 246 ft | 76 kts | 64° |
| 2026-05-05 07:25 | 50.86496 | 7.13973 | 258 ft | 138 kts | 64° |
| 2026-05-05 07:25 | 50.86942 | 7.15460 | 680 ft | 150 kts | 65° |
| 2026-05-05 07:25 | 50.87389 | 7.16957 | 1366 ft | 150 kts | 65° |
| 2026-05-05 07:26 | 50.87681 | 7.17950 | 1811 ft | 149 kts | 66° |
| 2026-05-05 07:26 | 50.88100 | 7.19375 | 2405 ft | 143 kts | 66° |
| 2026-05-05 07:26 | 50.88540 | 7.20876 | 2621 ft | 163 kts | 66° |
| 2026-05-05 07:26 | 50.89241 | 7.23277 | 2835 ft | 202 kts | 66° |
| 2026-05-05 07:27 | 50.89871 | 7.25427 | 3112 ft | 228 kts | 66° |
| 2026-05-05 07:27 | 50.90573 | 7.27827 | 3538 ft | 252 kts | 66° |
| 2026-05-05 07:27 | 50.91085 | 7.29576 | 3929 ft | 264 kts | 66° |
| 2026-05-05 07:27 | 50.91871 | 7.32261 | 4773 ft | 271 kts | 66° |
| 2026-05-05 07:28 | 50.92445 | 7.35074 | 5639 ft | 275 kts | 85° |
| 2026-05-05 07:28 | 50.92587 | 7.38107 | 6538 ft | 278 kts | 88° |
| 2026-05-05 07:28 | 50.92748 | 7.42227 | 7705 ft | 282 kts | 88° |
| 2026-05-05 07:28 | 50.92827 | 7.44291 | 8284 ft | 285 kts | 88° |
| 2026-05-05 07:29 | 50.92948 | 7.47445 | 9165 ft | 289 kts | 88° |
| 2026-05-05 07:29 | 50.93074 | 7.50653 | 10008 ft | 293 kts | 88° |
| 2026-05-05 07:29 | 50.93205 | 7.53985 | 10384 ft | 315 kts | 88° |
| 2026-05-05 07:29 | 50.93343 | 7.57569 | 10642 ft | 338 kts | 88° |
| 2026-05-05 07:30 | 50.93489 | 7.61385 | 11040 ft | 353 kts | 88° |
| 2026-05-05 07:30 | 50.93790 | 7.69300 | 12412 ft | 365 kts | 88° |
| 2026-05-05 07:30 | 50.93942 | 7.73343 | 13118 ft | 370 kts | 88° |
| 2026-05-05 07:31 | 50.94107 | 7.77438 | 13791 ft | 375 kts | 86° |
| 2026-05-05 07:31 | 50.94600 | 7.81526 | 14399 ft | 381 kts | 74° |
| 2026-05-05 07:31 | 50.95592 | 7.85449 | 15022 ft | 386 kts | 63° |
| 2026-05-05 07:31 | 50.96956 | 7.89150 | 15646 ft | 390 kts | 59° |
| 2026-05-05 07:32 | 50.98347 | 7.92873 | 16285 ft | 394 kts | 59° |
| 2026-05-05 07:32 | 50.99742 | 7.96643 | 16911 ft | 397 kts | 59° |
| 2026-05-05 07:32 | 51.01146 | 8.00455 | 17529 ft | 401 kts | 59° |
| 2026-05-05 07:32 | 51.02541 | 8.04252 | 18131 ft | 405 kts | 59° |
| 2026-05-05 07:33 | 51.03967 | 8.08142 | 18676 ft | 409 kts | 59° |
| 2026-05-05 07:33 | 51.05407 | 8.12069 | 19209 ft | 413 kts | 59° |
| 2026-05-05 07:33 | 51.06859 | 8.16028 | 19757 ft | 417 kts | 59° |
| 2026-05-05 07:33 | 51.08344 | 8.20081 | 20311 ft | 420 kts | 59° |
| 2026-05-05 07:34 | 51.09803 | 8.24068 | 20833 ft | 424 kts | 59° |
| 2026-05-05 07:34 | 51.11286 | 8.28138 | 21346 ft | 427 kts | 59° |
| 2026-05-05 07:34 | 51.12778 | 8.32248 | 21843 ft | 431 kts | 59° |
| 2026-05-05 07:34 | 51.14281 | 8.36400 | 22335 ft | 434 kts | 59° |
| 2026-05-05 07:35 | 51.15792 | 8.40584 | 22816 ft | 438 kts | 59° |
| 2026-05-05 07:35 | 51.17315 | 8.44807 | 23303 ft | 441 kts | 59° |
| 2026-05-05 07:35 | 51.18846 | 8.49058 | 23712 ft | 445 kts | 60° |
| 2026-05-05 07:35 | 51.20497 | 8.53249 | 24073 ft | 448 kts | 53° |
| 2026-05-05 07:36 | 51.22468 | 8.57108 | 24438 ft | 451 kts | 49° |
| 2026-05-05 07:36 | 51.24493 | 8.60950 | 24796 ft | 454 kts | 49° |
| 2026-05-05 07:36 | 51.26534 | 8.64829 | 25141 ft | 457 kts | 49° |
| 2026-05-05 07:36 | 51.28579 | 8.68729 | 25480 ft | 460 kts | 49° |
| 2026-05-05 07:37 | 51.30638 | 8.72670 | 25812 ft | 463 kts | 49° |
| 2026-05-05 07:37 | 51.32708 | 8.76647 | 26144 ft | 466 kts | 49° |
| 2026-05-05 07:37 | 51.34785 | 8.80643 | 26469 ft | 469 kts | 49° |
| 2026-05-05 07:37 | 51.36879 | 8.84676 | 26785 ft | 472 kts | 49° |
| 2026-05-05 07:38 | 51.38981 | 8.88727 | 26897 ft | 474 kts | 49° |
| 2026-05-05 07:38 | 51.41062 | 8.92738 | 26911 ft | 475 kts | 49° |
| 2026-05-05 07:38 | 51.43175 | 8.96805 | 26911 ft | 475 kts | 49° |
| 2026-05-05 07:38 | 51.45291 | 9.00878 | 26914 ft | 475 kts | 49° |
| 2026-05-05 07:39 | 51.47408 | 9.04964 | 26916 ft | 476 kts | 49° |
| 2026-05-05 07:39 | 51.49533 | 9.09042 | 26915 ft | 476 kts | 46° |
| 2026-05-05 07:39 | 51.51876 | 9.12768 | 26917 ft | 474 kts | 38° |
| 2026-05-05 07:39 | 51.54428 | 9.16099 | 26916 ft | 473 kts | 36° |
| 2026-05-05 07:40 | 51.56995 | 9.19411 | 26915 ft | 473 kts | 36° |
| 2026-05-05 07:40 | 51.59560 | 9.22724 | 26913 ft | 473 kts | 36° |
| 2026-05-05 07:40 | 51.62121 | 9.26041 | 26915 ft | 473 kts | 36° |
| 2026-05-05 07:40 | 51.64681 | 9.29367 | 26913 ft | 473 kts | 36° |
| 2026-05-05 07:41 | 51.67236 | 9.32696 | 26896 ft | 472 kts | 36° |
| 2026-05-05 07:41 | 51.69788 | 9.36027 | 26900 ft | 472 kts | 36° |
| 2026-05-05 07:41 | 51.72343 | 9.39367 | 26897 ft | 472 kts | 36° |
| 2026-05-05 07:41 | 51.74893 | 9.42711 | 26899 ft | 473 kts | 36° |
| 2026-05-05 07:42 | 51.77442 | 9.46059 | 26895 ft | 473 kts | 37° |
| 2026-05-05 07:42 | 51.79967 | 9.49379 | 26900 ft | 473 kts | 37° |
| 2026-05-05 07:42 | 51.82556 | 9.52633 | 26899 ft | 471 kts | 31° |
| 2026-05-05 07:42 | 51.85359 | 9.55325 | 26902 ft | 467 kts | 23° |
| 2026-05-05 07:43 | 51.88259 | 9.57706 | 26900 ft | 467 kts | 23° |
| 2026-05-05 07:43 | 51.91156 | 9.60088 | 26896 ft | 468 kts | 24° |
| 2026-05-05 07:43 | 51.94061 | 9.62485 | 26896 ft | 468 kts | 24° |
| 2026-05-05 07:43 | 51.96959 | 9.64886 | 26896 ft | 468 kts | 24° |
| 2026-05-05 07:44 | 51.99858 | 9.67296 | 26901 ft | 468 kts | 24° |
| 2026-05-05 07:44 | 52.02754 | 9.69707 | 26900 ft | 468 kts | 24° |
| 2026-05-05 07:44 | 52.05659 | 9.72130 | 26900 ft | 468 kts | 24° |
| 2026-05-05 07:44 | 52.08555 | 9.74549 | 26902 ft | 469 kts | 24° |
| 2026-05-05 07:45 | 52.11458 | 9.76977 | 26903 ft | 469 kts | 24° |
| 2026-05-05 07:45 | 52.14354 | 9.79404 | 26903 ft | 469 kts | 24° |
| 2026-05-05 07:45 | 52.17253 | 9.81838 | 26903 ft | 469 kts | 24° |
| 2026-05-05 07:45 | 52.20151 | 9.84274 | 26903 ft | 469 kts | 24° |
| 2026-05-05 07:46 | 52.23055 | 9.86710 | 26902 ft | 469 kts | 23° |
| 2026-05-05 07:46 | 52.26001 | 9.88752 | 26904 ft | 465 kts | 15° |
| 2026-05-05 07:46 | 52.29096 | 9.90211 | 26906 ft | 462 kts | 11° |
| 2026-05-05 07:46 | 52.32204 | 9.91569 | 26908 ft | 462 kts | 11° |
| 2026-05-05 07:47 | 52.35314 | 9.92927 | 26911 ft | 463 kts | 11° |
| 2026-05-05 07:47 | 52.38425 | 9.94287 | 26913 ft | 463 kts | 11° |
| 2026-05-05 07:47 | 52.41530 | 9.95653 | 26916 ft | 463 kts | 11° |
| 2026-05-05 07:47 | 52.44634 | 9.97024 | 26915 ft | 463 kts | 11° |
| 2026-05-05 07:48 | 52.47744 | 9.98400 | 26919 ft | 463 kts | 11° |
| 2026-05-05 07:48 | 52.50856 | 9.99780 | 26910 ft | 463 kts | 11° |
| 2026-05-05 07:48 | 52.53964 | 10.01160 | 26661 ft | 463 kts | 11° |
| 2026-05-05 07:48 | 52.57080 | 10.02543 | 26406 ft | 463 kts | 12° |
| 2026-05-05 07:49 | 52.60184 | 10.03922 | 26155 ft | 462 kts | 12° |
| 2026-05-05 07:49 | 52.63280 | 10.05299 | 25905 ft | 458 kts | 12° |
| 2026-05-05 07:49 | 52.66315 | 10.06657 | 25655 ft | 445 kts | 12° |
| 2026-05-05 07:49 | 52.69260 | 10.07988 | 25411 ft | 433 kts | 12° |
| 2026-05-05 07:50 | 52.72113 | 10.09285 | 25273 ft | 418 kts | 12° |
| 2026-05-05 07:50 | 52.74878 | 10.10538 | 25153 ft | 405 kts | 12° |
| 2026-05-05 07:50 | 52.77575 | 10.11535 | 25021 ft | 390 kts | 5° |
| 2026-05-05 07:50 | 52.80202 | 10.11896 | 24726 ft | 380 kts | 357° |
| 2026-05-05 07:51 | 52.82826 | 10.11961 | 24228 ft | 373 kts | 358° |
| 2026-05-05 07:51 | 52.85408 | 10.12032 | 23503 ft | 369 kts | 358° |
| 2026-05-05 07:51 | 52.87962 | 10.12109 | 22679 ft | 365 kts | 358° |
| 2026-05-05 07:51 | 52.90477 | 10.12190 | 21898 ft | 361 kts | 358° |
| 2026-05-05 07:52 | 52.92978 | 10.12277 | 21144 ft | 357 kts | 358° |
| 2026-05-05 07:52 | 52.95452 | 10.12365 | 20418 ft | 354 kts | 358° |
| 2026-05-05 07:52 | 52.97900 | 10.12450 | 19708 ft | 350 kts | 358° |
| 2026-05-05 07:52 | 53.00336 | 10.12529 | 19191 ft | 348 kts | 358° |
| 2026-05-05 07:53 | 53.02735 | 10.12606 | 18694 ft | 343 kts | 358° |
| 2026-05-05 07:53 | 53.05110 | 10.12683 | 18250 ft | 340 kts | 358° |
| 2026-05-05 07:53 | 53.07510 | 10.12464 | 17747 ft | 359 kts | 344° |
| 2026-05-05 07:53 | 53.09843 | 10.10852 | 17242 ft | 362 kts | 323° |
| 2026-05-05 07:54 | 53.11621 | 10.08105 | 16745 ft | 340 kts | 306° |
| 2026-05-05 07:54 | 53.13056 | 10.05070 | 16231 ft | 328 kts | 304° |
| 2026-05-05 07:54 | 53.14425 | 10.02079 | 15589 ft | 321 kts | 304° |
| 2026-05-05 07:54 | 53.15754 | 9.99150 | 14968 ft | 316 kts | 304° |
| 2026-05-05 07:55 | 53.17060 | 9.96245 | 14373 ft | 311 kts | 304° |
| 2026-05-05 07:55 | 53.18338 | 9.93373 | 13780 ft | 306 kts | 304° |
| 2026-05-05 07:55 | 53.19590 | 9.90534 | 13121 ft | 302 kts | 304° |
| 2026-05-05 07:55 | 53.20822 | 9.87719 | 12474 ft | 298 kts | 304° |
| 2026-05-05 07:56 | 53.22035 | 9.84934 | 11835 ft | 294 kts | 304° |
| 2026-05-05 07:56 | 53.23230 | 9.82180 | 11204 ft | 291 kts | 304° |
| 2026-05-05 07:56 | 53.24395 | 9.79492 | 10595 ft | 288 kts | 304° |
| 2026-05-05 07:56 | 53.25575 | 9.76765 | 9982 ft | 285 kts | 304° |
| 2026-05-05 07:57 | 53.26715 | 9.74138 | 9340 ft | 281 kts | 304° |
| 2026-05-05 07:57 | 53.27853 | 9.71508 | 8686 ft | 278 kts | 304° |
| 2026-05-05 07:57 | 53.28983 | 9.68898 | 8047 ft | 275 kts | 304° |
| 2026-05-05 07:57 | 53.30235 | 9.66520 | 7416 ft | 273 kts | 323° |
| 2026-05-05 07:58 | 53.31963 | 9.65282 | 6797 ft | 272 kts | 351° |
| 2026-05-05 07:58 | 53.33844 | 9.65274 | 6179 ft | 269 kts | 3° |
| 2026-05-05 07:58 | 53.35696 | 9.65546 | 5587 ft | 264 kts | 4° |
| 2026-05-05 07:58 | 53.37319 | 9.65806 | 5132 ft | 257 kts | 4° |
| 2026-05-05 07:59 | 53.39076 | 9.66099 | 4625 ft | 251 kts | 4° |
| 2026-05-05 07:59 | 53.40790 | 9.66384 | 4108 ft | 245 kts | 5° |
| 2026-05-05 07:59 | 53.42464 | 9.66640 | 3671 ft | 238 kts | 4° |
| 2026-05-05 07:59 | 53.44107 | 9.66867 | 3369 ft | 235 kts | 5° |
| 2026-05-05 08:00 | 53.45687 | 9.67452 | 3075 ft | 231 kts | 21° |
| 2026-05-05 08:00 | 53.47157 | 9.68480 | 3034 ft | 228 kts | 24° |
| 2026-05-05 08:00 | 53.48600 | 9.69584 | 3031 ft | 228 kts | 30° |
| 2026-05-05 08:00 | 53.49675 | 9.71465 | 3036 ft | 226 kts | 60° |
| 2026-05-05 08:01 | 53.50536 | 9.73684 | 3037 ft | 227 kts | 52° |
| 2026-05-05 08:01 | 53.51544 | 9.75722 | 3038 ft | 227 kts | 50° |
| 2026-05-05 08:01 | 53.52567 | 9.77747 | 2957 ft | 228 kts | 50° |
| 2026-05-05 08:01 | 53.53591 | 9.79793 | 2695 ft | 227 kts | 50° |
| 2026-05-05 08:02 | 53.54575 | 9.81768 | 2409 ft | 216 kts | 50° |
| 2026-05-05 08:02 | 53.55488 | 9.83603 | 2125 ft | 195 kts | 50° |
| 2026-05-05 08:02 | 53.56336 | 9.85308 | 1866 ft | 186 kts | 50° |
| 2026-05-05 08:02 | 53.57149 | 9.86942 | 1638 ft | 174 kts | 50° |
| 2026-05-05 08:03 | 53.57883 | 9.88420 | 1391 ft | 156 kts | 50° |
| 2026-05-05 08:03 | 53.58535 | 9.89735 | 1173 ft | 139 kts | 50° |
| 2026-05-05 08:03 | 53.59139 | 9.90951 | 951 ft | 133 kts | 50° |
| 2026-05-05 08:03 | 53.59725 | 9.92137 | 761 ft | 133 kts | 48° |
| 2026-05-05 08:04 | 53.60312 | 9.93344 | 552 ft | 130 kts | 49° |
| 2026-05-05 08:04 | 53.60900 | 9.94524 | 416 ft | 135 kts | 47° |
| 2026-05-05 08:04 | 53.61525 | 9.95758 | 225 ft | 141 kts | 49° |
| 2026-05-05 08:04 | 53.62135 | 9.97004 | 56 ft | 135 kts | 47° |
| 2026-05-05 08:05 | 53.62639 | 9.98014 | 52 ft | 87 kts | 51° |
| 2026-05-05 08:05 | 53.62915 | 9.98572 | 51 ft | 37 kts | 50° |
| 2026-05-05 08:05 | 53.63025 | 9.98793 | 51 ft | 15 kts | 52° |
| 2026-05-05 08:05 | 53.63091 | 9.98931 | 52 ft | 16 kts | 51° |
| 2026-05-05 08:06 | 53.63170 | 9.99095 | 53 ft | 20 kts | 51° |
| 2026-05-05 08:06 | 53.63264 | 9.99292 | 54 ft | 23 kts | 62° |
| 2026-05-05 08:06 | 53.63287 | 9.99524 | 51 ft | 19 kts | 98° |
| 2026-05-05 08:06 | 53.63275 | 9.99632 | 51 ft | 0 kts | 102° |
| 2026-05-05 08:07 | 53.63271 | 9.99658 | 51 ft | 4 kts | 102° |
| 2026-05-05 08:07 | 53.63269 | 9.99700 | 51 ft | 3 kts | 89° |
| 2026-05-05 08:07 | 53.63273 | 9.99730 | 51 ft | 2 kts | 77° |
| 2026-05-05 08:08 | 53.63277 | 9.99748 | 51 ft | 1 kts | 68° |
| 2026-05-05 08:08 | 53.63302 | 9.99807 | 51 ft | 10 kts | 51° |
| 2026-05-05 08:08 | 53.63354 | 9.99915 | 51 ft | 13 kts | 51° |
| 2026-05-05 08:08 | 53.63415 | 10.00040 | 51 ft | 11 kts | 51° |
| 2026-05-05 08:09 | 53.63408 | 10.00148 | 49 ft | 10 kts | 150° |
| 2026-05-05 08:09 | 53.63343 | 10.00164 | 51 ft | 9 kts | 176° |
| 2026-05-05 08:09 | 53.63285 | 10.00172 | 51 ft | 8 kts | 175° |
| 2026-05-05 08:09 | 53.63233 | 10.00179 | 49 ft | 7 kts | 176° |
| 2026-05-05 08:10 | 53.63188 | 10.00184 | 51 ft | 6 kts | 176° |
| 2026-05-05 08:10 | 53.63148 | 10.00188 | 51 ft | 5 kts | 176° |
| 2026-05-05 08:10 | 53.63116 | 10.00201 | 49 ft | 4 kts | 148° |
| 2026-05-05 08:10 | 53.63101 | 10.00236 | 51 ft | 3 kts | 114° |
| 2026-05-05 08:11 | 53.63100 | 10.00285 | 51 ft | 6 kts | 86° |
| 2026-05-05 08:11 | 53.63103 | 10.00350 | 51 ft | 5 kts | 85° |
| 2026-05-05 08:11 | 53.63103 | 10.00352 | 51 ft | 0 kts | 85° |
| 2026-05-05 08:13 | 53.63169 | 10.00355 | 52 ft | 0 kts | 87° |
| 2026-05-05 08:13 | 53.63111 | 10.00375 | 52 ft | 0 kts | 87° |